Hlavní strana
METAR-TAF:

METAR-TAF

Letiště :

Pápa, Maďarsko

zeměpisná šířka: 47-12N, zeměpisná délka: 017-30E, výška: 145 m

Aktuální stav počasí

Zpráva byla vytvořena před 43 minutami, v 14:15 UTC
vítr z různých směrů 2 kt
Teplota 28°C
Vlhkost vzduchu 32%
Tlak 1018 hPa
Viditelnost 10 km a více
Žádná oblačnost pod 1500 m, nevyskytují se cumulonimby.

METAR: LHPA 141415Z VRB02KT CAVOK 28/10 Q1018 NOSIG RMK BLU

Čas: 16:58 (14:58 UTC)

Předpověď počasí

Zpráva byla vytvořena před 3 hodinami a 43 minutami, v 11:15 UTC
Předpověď platná od 14 v 12 UTC do 15 v 12 UTC
Jihojihozápadní vítr 6 kt
Viditelnost 10 km a více
Žádná oblačnost pod 1500 m, nevyskytují se cumulonimby.
Změna
od 14 v 14 UTC do 14 v 17 UTC
vítr z různých směrů 3 kt
Dočasný
od 15 v 00 UTC do 15 v 06 UTC
Jižní vítr 6 kt
Změna
od 15 v 10 UTC do 15 v 12 UTC
Severoseverozápadní vítr 10 kt

TAF: LHPA 141115Z 1412/1512 20006KT CAVOK BECMG 1414/1417 VRB03KT TEMPO 1500/1506 18006KT BECMG 1510/1512 34010KT

Stav a předpovědi počasí z více než 4 000 letišť (zprávy METAR a TAF).

Červené a žluté tečky na mapě představují dostupné meteorologické stanice.

Když kurzor umístíte na tečku, zobrazí se název stanice.

Pak kliknutím zobrazíte stav a předpověď počasí.

Chcete-li změnit mapu, kliknutím na zelené tlačítko se znaménkem +mapu přiblížíte, kliknutím na zelené tlačítko se znaménkem – mapu oddálíte a kliknutím na zelené šipky přejdete na sousední mapy.


METAR-TAF: